CheckWX is a tool to help pilots better visualize weather data.  It is not intended as a substitute for an official pre-flight weather briefing.

12:47:04 UTC

KFOD TAF
Fort Dodge Regional Airport
Fort Dodge, Iowa, USA
KFOD 131131Z 1312/1412 VRB04KT P6SM SCT150 FM131400 VRB03KT P6SM VCSH OVC009 FM131600 14006KT 3SM -FZDZSN OVC008 FM131800 16005KT 6SM -SN BKN010 FM131900 17005KT P6SM BKN050 FM140000 31005KT P6SM BKN025 FM140700 33012KT P6SM BKN010

Dec-13@
12:00 UTC

Dec-13 @ 12:00 UTC

Dec-13@
14:00 UTC

Dec-13 @ 14:00 UTC

KFOD 131131Z 1312/1412 VRB04KT P6SM SCT150
Wind
  • Variable at 4 KTS
Cloud Levels
  • Scattered at 15,000' AGL

Dec-13@
14:00 UTC

Dec-13 @ 14:00 UTC

Dec-13@
16:00 UTC

Dec-13 @ 16:00 UTC

FM131400 VRB03KT P6SM VCSH OVC009

From

From Standard forecast or significant change

Wind
  • Variable at 3 KTS
Cloud Levels
  • Overcast at 900' AGL

Dec-13@
16:00 UTC

Dec-13 @ 16:00 UTC

Dec-13@
18:00 UTC

Dec-13 @ 18:00 UTC

FM131600 14006KT 3SM -FZDZSN OVC008

From

From Standard forecast or significant change

Wind
  • 140° at 6 KTS
Conditions
Light Freezing Light Drizzle, Snow
Cloud Levels
  • Overcast at 800' AGL

Dec-13@
18:00 UTC

Dec-13 @ 18:00 UTC

Dec-13@
19:00 UTC

Dec-13 @ 19:00 UTC

FM131800 16005KT 6SM -SN BKN010

From

From Standard forecast or significant change

Wind
  • 160° at 5 KTS
Conditions
Light Snow
Cloud Levels
  • Broken at 1,000' AGL

Dec-13@
19:00 UTC

Dec-13 @ 19:00 UTC

Dec-14@
00:00 UTC

Dec-14 @ 00:00 UTC

FM131900 17005KT P6SM BKN050

From

From Standard forecast or significant change

Wind
  • 170° at 5 KTS
Cloud Levels
  • Broken at 5,000' AGL

Dec-14@
00:00 UTC

Dec-14 @ 00:00 UTC

Dec-14@
07:00 UTC

Dec-14 @ 07:00 UTC

FM140000 31005KT P6SM BKN025

From

From Standard forecast or significant change

Wind
  • 310° at 5 KTS
Cloud Levels
  • Broken at 2,500' AGL

Dec-14@
07:00 UTC

Dec-14 @ 07:00 UTC

Dec-14@
12:00 UTC

Dec-14 @ 12:00 UTC

FM140700 33012KT P6SM BKN010

From

From Standard forecast or significant change

Wind
  • 330° at 12 KTS
Cloud Levels
  • Broken at 1,000' AGL